createdAt,value
2019-01-26T08:38:44.517Z,97922.61
2019-01-26T08:43:51.299Z,97927.14
2019-01-26T08:48:58.687Z,97912.42
2019-01-26T08:54:05.078Z,97919.19
2019-01-26T08:59:10.765Z,97916.31
2019-01-26T09:04:26.379Z,97924.67
2019-01-26T09:09:31.966Z,97923.09
2019-01-26T09:14:37.574Z,97928.48
2019-01-26T09:19:43.208Z,97924.79
2019-01-26T09:24:48.855Z,97914.55
2019-01-26T09:29:54.533Z,97908.72
2019-01-26T09:35:00.445Z,97913.95
2019-01-26T09:40:08.580Z,97906.36
2019-01-26T09:45:16.216Z,97909.41
2019-01-26T09:50:23.054Z,97905.50
2019-01-26T09:55:28.731Z,97902.44
2019-01-26T10:00:35.148Z,97888.88
2019-01-26T10:05:40.853Z,97902.12
2019-01-26T10:10:46.920Z,97899.41
2019-01-26T10:15:52.554Z,97905.94
2019-01-26T10:20:59.274Z,97909.55
2019-01-26T10:26:07.996Z,97905.33
2019-01-26T10:31:14.711Z,97898.92
2019-01-26T10:36:42.219Z,97898.00
2019-01-26T10:42:06.549Z,97888.81
2019-01-26T10:47:14.503Z,97886.83
2019-01-26T10:52:20.135Z,97889.72
2019-01-26T10:57:25.710Z,97886.03
2019-01-26T11:02:31.835Z,97878.48
2019-01-26T11:07:37.493Z,97874.17
2019-01-26T11:12:44.363Z,97870.91
2019-01-26T11:17:50.095Z,97864.26
2019-01-26T11:22:57.490Z,97858.55
2019-01-26T11:28:03.926Z,97853.86
2019-01-26T11:33:09.970Z,97842.25
2019-01-26T11:38:15.663Z,97845.88
2019-01-26T11:43:22.262Z,97839.96
2019-01-26T11:48:31.908Z,97838.73
2019-01-26T11:53:38.059Z,97821.18
2019-01-26T11:58:43.659Z,97819.87
2019-01-26T12:03:57.744Z,97810.66
2019-01-26T12:09:06.156Z,97799.29
2019-01-26T12:14:11.973Z,97798.20
2019-01-26T12:19:22.337Z,97794.08
2019-01-26T12:24:25.031Z,97788.53
2019-01-26T12:29:30.801Z,97782.97
2019-01-26T12:34:37.611Z,97779.92
2019-01-26T12:39:43.721Z,97785.09
2019-01-26T12:44:49.535Z,97774.32
2019-01-26T12:49:58.360Z,97770.38
2019-01-26T12:55:04.247Z,97764.20
2019-01-26T13:00:13.392Z,97761.89
2019-01-26T13:05:20.671Z,97760.08
2019-01-26T13:10:30.099Z,97755.56
2019-01-26T13:15:36.306Z,97753.44
2019-01-26T13:20:42.049Z,97756.56
2019-01-26T13:25:49.287Z,97746.36
2019-01-26T13:30:55.146Z,97753.67
2019-01-26T13:36:00.874Z,97748.62
2019-01-26T13:41:09.597Z,97743.34
2019-01-26T13:46:15.882Z,97739.30
2019-01-26T13:51:23.195Z,97732.63
2019-01-26T13:56:29.804Z,97727.55
2019-01-26T14:01:35.677Z,97726.92
2019-01-26T14:06:44.066Z,97719.55
2019-01-26T14:11:49.774Z,97723.44
2019-01-26T14:16:56.215Z,97723.00
2019-01-26T14:22:02.668Z,97722.50
2019-01-26T14:27:08.565Z,97721.41
2019-01-26T14:32:14.292Z,97726.50
2019-01-26T14:37:20.534Z,97726.86
2019-01-26T14:42:26.279Z,97730.86
2019-01-26T14:47:33.356Z,97734.72
2019-01-26T14:52:41.998Z,97731.72
2019-01-26T14:57:49.241Z,97724.45
2019-01-26T15:02:55.639Z,97736.44
2019-01-26T15:08:01.816Z,97733.14
2019-01-26T15:13:08.145Z,97734.48
2019-01-26T15:18:13.940Z,97725.53
2019-01-26T15:23:19.698Z,97724.80
2019-01-26T15:28:25.836Z,97715.91
2019-01-26T15:33:33.283Z,97720.00
2019-01-26T15:38:41.737Z,97724.51
2019-01-26T15:43:49.131Z,97735.98
2019-01-26T15:48:59.660Z,97724.69
2019-01-26T15:54:06.031Z,97738.03
2019-01-26T15:59:14.751Z,97733.06
2019-01-26T16:04:22.144Z,97731.48
2019-01-26T16:09:28.699Z,97736.03
2019-01-26T16:14:34.806Z,97744.08
2019-01-26T16:19:41.490Z,97748.25
2019-01-26T16:24:47.439Z,97747.95
2019-01-26T16:29:54.447Z,97740.13
2019-01-26T16:35:00.285Z,97749.41
2019-01-26T16:40:08.163Z,97730.63
2019-01-26T16:45:17.190Z,97740.70
2019-01-26T16:50:27.808Z,97735.44
2019-01-26T16:55:36.301Z,97741.81
2019-01-26T17:00:48.270Z,97739.89
2019-01-26T17:05:54.350Z,97732.19
2019-01-26T17:11:04.708Z,97739.95
2019-01-26T17:16:10.498Z,97733.66
2019-01-26T17:21:18.067Z,97733.42
2019-01-26T17:26:24.979Z,97736.28
2019-01-26T17:31:30.692Z,97737.91
2019-01-26T17:36:39.087Z,97745.44
2019-01-26T17:41:45.378Z,97740.02
2019-01-26T17:46:51.180Z,97737.31
2019-01-26T17:52:00.336Z,97740.42
2019-01-26T17:57:08.502Z,97748.11
2019-01-26T18:02:15.618Z,97752.11
2019-01-26T18:07:22.467Z,97739.31
2019-01-26T18:12:28.906Z,97739.30
2019-01-26T18:17:34.621Z,97734.95
2019-01-26T18:22:43.128Z,97737.13
2019-01-26T18:27:49.362Z,97728.55
2019-01-26T18:32:56.262Z,97728.55
2019-01-26T18:38:06.762Z,97725.31
2019-01-26T18:43:12.934Z,97723.23
2019-01-26T18:48:19.154Z,97730.77
2019-01-26T18:53:25.970Z,97728.15
2019-01-26T18:58:33.589Z,97718.99
2019-01-26T19:04:09.567Z,97729.13
2019-01-26T19:09:17.866Z,97716.19
2019-01-26T19:14:24.525Z,97710.97
2019-01-26T19:19:31.375Z,97718.14
2019-01-26T19:24:37.431Z,97718.25
2019-01-26T19:29:46.687Z,97701.32
2019-01-26T19:34:54.066Z,97695.92
2019-01-26T19:40:01.376Z,97692.97
2019-01-26T19:45:10.112Z,97687.70
2019-01-26T19:50:21.204Z,97683.31
2019-01-26T19:55:30.191Z,97682.66
2019-01-26T20:00:44.688Z,97688.82
2019-01-26T20:05:52.118Z,97685.94
2019-01-26T20:11:00.420Z,97678.08
2019-01-26T20:16:09.594Z,97677.85
2019-01-26T20:21:17.747Z,97674.34
2019-01-26T20:26:27.169Z,97679.09
2019-01-26T20:31:46.151Z,97680.78
2019-01-26T20:42:25.047Z,97671.94
2019-01-26T20:47:31.487Z,97675.31
2019-01-26T20:52:37.805Z,97667.75
2019-01-26T20:57:44.979Z,97661.37
2019-01-26T21:02:52.930Z,97657.27
2019-01-26T21:08:01.741Z,97647.06
2019-01-26T21:13:16.112Z,97647.20
2019-01-26T21:18:20.704Z,97639.16
2019-01-26T21:23:28.024Z,97640.75
2019-01-26T21:28:34.859Z,97625.13
2019-01-26T21:33:41.168Z,97629.39
2019-01-26T21:38:46.940Z,97626.32
2019-01-26T21:43:52.705Z,97621.08
2019-01-26T21:48:58.480Z,97609.67
2019-01-26T21:54:06.410Z,97609.98
2019-01-26T21:59:15.161Z,97602.25
2019-01-26T22:04:21.538Z,97590.17
2019-01-26T22:09:30.279Z,97583.69
2019-01-26T22:14:36.148Z,97574.28
2019-01-26T22:19:43.465Z,97576.58
2019-01-26T22:24:50.819Z,97563.83
2019-01-26T22:29:57.543Z,97556.19
2019-01-26T22:35:03.369Z,97543.44
2019-01-26T22:40:12.662Z,97551.21
2019-01-26T22:45:19.369Z,97538.29
2019-01-26T22:50:25.245Z,97523.31
2019-01-26T22:55:30.828Z,97525.95
2019-01-26T23:01:09.456Z,97505.47
2019-01-26T23:06:42.732Z,97504.72
2019-01-26T23:12:20.800Z,97493.25
2019-01-26T23:18:04.446Z,97488.61
2019-01-26T23:23:28.114Z,97479.50
2019-01-26T23:29:13.510Z,97489.39
2019-01-26T23:34:19.098Z,97486.56
2019-01-26T23:39:24.723Z,97486.67
2019-01-26T23:44:30.325Z,97480.09
2019-01-26T23:54:55.318Z,97482.95
